Main page
METAR-TAF:

METAR-TAF

Airports :

Hawarden, Wales

Hawarden Airport

latitude: 53-10N, longitude: 002-59W, elevation: 10 m

Current weather observation

The report was made 34 minutes ago, at 13:20 UTC
Wind 11 kt from the Southwest
Temperature 17°C
Humidity 72%
Pressure 1012 hPa
Visibility 10 km or more
Few clouds at a height of 2100 ft
Broken clouds at a height of 2700 ft

METAR: EGNR 241320Z 23011KT 9999 FEW021 BKN027 17/12 Q1012

Time: 14:54 (13:54 UTC)

Forecast

The report was made 2 hours and 55 minutes ago, at 10:59 UTC
Forecast valid from 24 at 12 UTC to 24 at 18 UTC
Wind 8 kt from the West/Southwest
Visibility 10 km or more
Broken clouds at a height of 3500 ft

TAF: EGNR 241059Z 2412/2418 24008KT 9999 BKN035

Weather observations and forecasts of more than 4000 airports (METAR and TAF reports).

The available stations are represented by yellow and red dots on the map.

Hover mouse over dot to see the name of the station.

Then click to see weather observations and forecasts.

To change the map : click on the green buttons with a black cross to zoom in, on the green button with a dash to zoom out, or on the green arrows for adjacent maps.


METAR-TAF: